EDDF

Frankfurt am Main International Airport

Frankfurt-am-Main, Germany
TAF EDDF 251700Z 2518/2624 24013KT 9999 SCT045 BECMG 2518/2520 24008KT PROB30 TEMPO 2518/2521 SHRA BKN030TCU BECMG 2607/2609 26015G25KT PROB30 TEMPO 2609/2615 SHRA SCT040TCU BECMG 2617/2619 23008KT BECMG 2619/2621 VRB03KT
Issued Valid From Valid To
Apr-25 @ 17:00 UTC
(an hour ago)
Apr-25 @ 18:00 UTC
(15 minutes ago)
Apr-27 @ 00:00 UTC
(-1 days ago)
Apr-25 @ 18:00 to Apr-27 @ 00:00
TAF EDDF 251700Z 2518/2624 24013KT 9999 SCT045
Wind Visibility Clouds
240° at 13 knots 10,000+ meters
  • Scattered at 4,500' AGL
Temporary  (Probability 30%) Apr-25 @ 18:00 to Apr-25 @ 21:00
PROB30 TEMPO 2518/2521 SHRA BKN030TCU
Clouds Conditions
  • Broken at 3,000' AGL
  • Rain
Becoming Apr-25 @ 18:00 to Apr-26 @ 07:00
BECMG 2518/2520 24008KT
Wind Visibility Clouds
240° at 8 knots 10,000+ meters
  • Scattered at 4,500' AGL
Becoming Apr-26 @ 07:00 to Apr-26 @ 17:00
BECMG 2607/2609 26015G25KT
Wind Visibility Clouds
260° at 15 knots
 Gusting to 25 knots
10,000+ meters
  • Scattered at 4,500' AGL
Temporary  (Probability 30%) Apr-26 @ 09:00 to Apr-26 @ 15:00
PROB30 TEMPO 2609/2615 SHRA SCT040TCU
Clouds Conditions
  • Scattered at 4,000' AGL
  • Rain
Becoming Apr-26 @ 17:00 to Apr-26 @ 19:00
BECMG 2617/2619 23008KT
Wind Visibility Clouds
230° at 8 knots 10,000+ meters
  • Scattered at 4,500' AGL
Becoming Apr-26 @ 19:00 to Apr-27 @ 00:00
BECMG 2619/2621 VRB03KT
Wind Visibility Clouds
Variable at 3 knots 10,000+ meters
  • Scattered at 4,500' AGL
TAF EDDF 251700Z 2518/2624 24013KT 9999 SCT045 BECMG 2518/2520 24008KT PROB30 TEMPO 2518/2521 SHRA BKN030TCU BECMG 2607/2609 26015G25KT PROB30 TEMPO 2609/2615 SHRA SCT040TCU BECMG 2617/2619 23008KT BECMG 2619/2621 VRB03KT
Issued Apr-25 @ 17:00 UTC
(an hour ago)
Valid From Apr-25 @ 18:00 UTC
(15 minutes ago)
Valid To Apr-27 @ 00:00 UTC
(-1 days ago)
Apr-25 @ 18:00 - Apr-27 @ 00:00
Wind Visibility
240° at 13 knots 10,000+ meters
Clouds
  • Scattered at 4,500' AGL
Probability 30% Temporary Apr-25 @ 18:00 - Apr-25 @ 21:00
Clouds
  • Broken at 3,000' AGL
Conditions
  • Rain
Becoming Apr-25 @ 18:00 - Apr-26 @ 07:00
Wind Visibility
240° at 8 knots 10,000+ meters
Clouds
  • Scattered at 4,500' AGL
Becoming Apr-26 @ 07:00 - Apr-26 @ 17:00
Wind Visibility
260° at 15 knots
 Gusting to 25 knots
10,000+ meters
Clouds
  • Scattered at 4,500' AGL
Probability 30% Temporary Apr-26 @ 09:00 - Apr-26 @ 15:00
Clouds
  • Scattered at 4,000' AGL
Conditions
  • Rain
Becoming Apr-26 @ 17:00 - Apr-26 @ 19:00
Wind Visibility
230° at 8 knots 10,000+ meters
Clouds
  • Scattered at 4,500' AGL
Becoming Apr-26 @ 19:00 - Apr-27 @ 00:00
Wind Visibility
Variable at 3 knots 10,000+ meters
Clouds
  • Scattered at 4,500' AGL